Radford, Virginia
Current Conditions -  °F | °C
As of 7:35 PM on Thursday 18 Dec 2014 (Local Time) from KPSK Reporting Station
Overcast Overcast  
Wind Chill: 34°   Ceiling: 6000
Heat Index: 39°   Visibility: 10mi
Dew Point: 22°   Wind: 7mph
Humidity: 51%   Direction: 240°WSW
Pressure: 30.09"   Gusts: NA
Location:  37.12°N, 80.59°W
Report Text: KPSK 190035Z AUTO 24006KT 10SM BKN060 OVC085 04/M05 A3009 RMK AO2 T00381055
Loading
Personal Weather Stations






























Interactive Weather Map New forecast layout! Learn more

10-Day Weather Forecast

Advertisements
Track Severe Weather on mobile